createdAt,value
2023-12-08T00:02:09.571Z,98431.66
2023-12-08T00:04:36.286Z,98434.25
2023-12-08T00:07:03.049Z,98435.22
2023-12-08T00:09:29.878Z,98448.16
2023-12-08T00:11:56.842Z,98444.78
2023-12-08T00:14:23.540Z,98447.38
2023-12-08T00:16:50.299Z,98446.56
2023-12-08T00:19:17.210Z,98455.22
2023-12-08T00:21:43.956Z,98457.88
2023-12-08T00:24:10.801Z,98459.69
2023-12-08T00:26:37.818Z,98458.84
2023-12-08T00:29:05.504Z,98464.84
2023-12-08T00:31:32.691Z,98460.53
2023-12-08T00:33:59.575Z,98462.22
2023-12-08T00:36:27.282Z,98460.44
2023-12-08T00:38:55.390Z,98464.72
2023-12-08T00:41:23.409Z,98462.09
2023-12-08T00:43:50.175Z,98465.53
2023-12-08T00:46:18.049Z,98462.09
2023-12-08T00:48:44.867Z,98462.09
2023-12-08T00:51:14.903Z,98463.81
2023-12-08T00:53:42.674Z,98450.91
2023-12-08T00:56:10.378Z,98472.44
2023-12-08T00:58:38.350Z,98472.41
2023-12-08T01:01:05.851Z,98478.44
2023-12-08T01:03:32.995Z,98474.16
2023-12-08T01:05:59.859Z,98479.28
2023-12-08T01:08:26.641Z,98474.13
2023-12-08T01:10:53.364Z,98469.81
2023-12-08T01:13:20.766Z,98469.00
2023-12-08T01:15:48.214Z,98468.22
2023-12-08T01:18:15.014Z,98475.19
2023-12-08T01:20:41.792Z,98477.00
2023-12-08T01:23:08.602Z,98483.09
2023-12-08T01:25:35.330Z,98485.75
2023-12-08T01:28:02.026Z,98494.34
2023-12-08T01:30:29.017Z,98500.34
2023-12-08T01:32:55.893Z,98494.31
2023-12-08T01:35:22.700Z,98497.75
2023-12-08T01:37:49.418Z,98498.59
2023-12-08T01:40:16.462Z,98510.63
2023-12-08T01:42:45.747Z,98508.94
2023-12-08T01:45:12.644Z,98512.38
2023-12-08T01:47:40.897Z,98513.28
2023-12-08T01:50:09.413Z,98511.53
2023-12-08T01:52:37.565Z,98518.44
2023-12-08T01:55:04.783Z,98514.13
2023-12-08T01:57:31.557Z,98521.84
2023-12-08T01:59:59.231Z,98524.44
2023-12-08T02:02:26.472Z,98523.56
2023-12-08T02:04:58.038Z,98524.44
2023-12-08T02:07:26.502Z,98535.59
2023-12-08T02:09:53.303Z,98542.50
2023-12-08T02:12:20.223Z,98540.81
2023-12-08T02:14:51.775Z,98537.34
2023-12-08T02:17:26.186Z,98550.25
2023-12-08T02:19:54.378Z,98550.22
2023-12-08T02:22:25.148Z,98548.50
2023-12-08T02:24:52.575Z,98555.34
2023-12-08T02:27:19.778Z,98547.66
2023-12-08T02:29:46.598Z,98548.50
2023-12-08T02:32:29.059Z,98543.31
2023-12-08T02:34:59.109Z,98550.22
2023-12-08T02:37:27.917Z,98545.91
2023-12-08T02:39:57.124Z,98543.31
2023-12-08T02:42:23.843Z,98538.13
2023-12-08T02:44:50.531Z,98544.16
2023-12-08T02:47:17.371Z,98548.47
2023-12-08T02:49:44.100Z,98552.78
2023-12-08T02:52:10.816Z,98562.22
2023-12-08T02:54:37.526Z,98559.63
2023-12-08T02:57:04.328Z,98558.75
2023-12-08T02:59:31.264Z,98555.34
2023-12-08T03:01:57.985Z,98550.16
2023-12-08T03:04:24.722Z,98552.72
2023-12-08T03:06:51.422Z,98552.75
2023-12-08T03:09:18.139Z,98559.66
2023-12-08T03:11:44.901Z,98545.00
2023-12-08T03:14:11.823Z,98548.44
2023-12-08T03:16:38.541Z,98549.28
2023-12-08T03:19:05.558Z,98552.72
2023-12-08T03:21:32.512Z,98544.94
2023-12-08T03:23:59.212Z,98540.63
2023-12-08T03:26:25.959Z,98551.84
2023-12-08T03:28:52.669Z,98547.56
2023-12-08T03:31:26.654Z,98550.13
2023-12-08T03:33:53.950Z,98552.75
2023-12-08T03:36:20.800Z,98552.78
2023-12-08T03:38:47.655Z,98557.13
2023-12-08T03:41:14.516Z,98550.28
2023-12-08T03:43:41.678Z,98563.25
2023-12-08T03:46:09.122Z,98556.41
2023-12-08T03:48:37.655Z,98542.69
2023-12-08T03:51:05.746Z,98548.72
2023-12-08T03:53:33.303Z,98539.25
2023-12-08T03:56:00.580Z,98543.53
2023-12-08T03:58:28.709Z,98540.94
2023-12-08T04:00:55.580Z,98541.81
2023-12-08T04:03:22.619Z,98543.53
2023-12-08T04:05:49.725Z,98546.97
2023-12-08T04:08:16.526Z,98544.38
2023-12-08T04:10:43.256Z,98546.09
2023-12-08T04:13:10.055Z,98550.38
2023-12-08T04:15:36.803Z,98552.97
2023-12-08T04:18:04.377Z,98563.28
2023-12-08T04:20:32.492Z,98559.00
2023-12-08T04:22:59.268Z,98567.66
2023-12-08T04:25:26.082Z,98572.84
2023-12-08T04:27:52.804Z,98571.19
2023-12-08T04:30:19.722Z,98571.22
2023-12-08T04:32:46.532Z,98573.78
2023-12-08T04:35:14.072Z,98573.75
2023-12-08T04:37:41.022Z,98569.47
2023-12-08T04:40:08.696Z,98579.84
2023-12-08T04:42:37.375Z,98584.13
2023-12-08T04:45:05.862Z,98576.34
2023-12-08T04:47:32.916Z,98584.97
2023-12-08T04:50:00.547Z,98585.81
2023-12-08T04:52:27.318Z,98574.63
2023-12-08T04:54:54.040Z,98579.81
2023-12-08T04:57:21.207Z,98574.63
2023-12-08T04:59:48.082Z,98575.50
2023-12-08T05:02:15.070Z,98573.78
2023-12-08T05:04:42.590Z,98577.22
2023-12-08T05:07:10.077Z,98579.81
2023-12-08T05:09:37.336Z,98582.38
2023-12-08T05:12:04.391Z,98591.88
2023-12-08T05:14:31.111Z,98585.00
2023-12-08T05:16:58.213Z,98576.44
2023-12-08T05:19:25.099Z,98579.06
2023-12-08T05:21:51.940Z,98575.63
2023-12-08T05:24:18.785Z,98580.81
2023-12-08T05:26:45.711Z,98583.44
2023-12-08T05:29:12.498Z,98586.94
2023-12-08T05:31:39.272Z,98583.53
2023-12-08T05:34:06.279Z,98587.06
2023-12-08T05:36:33.217Z,98576.78
2023-12-08T05:39:00.003Z,98572.53
2023-12-08T05:41:26.794Z,98584.56
2023-12-08T05:43:53.506Z,98579.41
2023-12-08T05:46:20.231Z,98573.44
2023-12-08T05:48:49.042Z,98583.75
2023-12-08T05:51:15.949Z,98575.19
2023-12-08T05:53:43.024Z,98577.75
2023-12-08T05:56:10.336Z,98584.66
2023-12-08T05:58:37.013Z,98584.66
2023-12-08T06:01:04.125Z,98591.53
2023-12-08T06:03:30.866Z,98581.25
2023-12-08T06:05:57.637Z,98585.59
2023-12-08T06:08:24.403Z,98584.78
2023-12-08T06:10:51.085Z,98582.19
2023-12-08T06:13:17.847Z,98577.03
2023-12-08T06:15:44.546Z,98576.19
2023-12-08T06:18:11.916Z,98577.94
2023-12-08T06:20:38.942Z,98590.84
2023-12-08T06:23:05.739Z,98595.16
2023-12-08T06:25:32.446Z,98590.00
2023-12-08T06:27:59.119Z,98593.47
2023-12-08T06:30:25.927Z,98588.38
2023-12-08T06:32:52.716Z,98583.25
2023-12-08T06:35:20.473Z,98581.56
2023-12-08T06:37:47.683Z,98599.69
2023-12-08T06:40:14.410Z,98594.53
2023-12-08T06:42:41.864Z,98607.50
2023-12-08T06:45:09.574Z,98616.09
2023-12-08T06:47:36.706Z,98614.38
2023-12-08T06:50:03.815Z,98615.19
2023-12-08T06:52:30.521Z,98607.44
2023-12-08T06:54:57.220Z,98614.28
2023-12-08T06:57:24.169Z,98606.50
2023-12-08T06:59:51.198Z,98607.31
2023-12-08T07:02:18.679Z,98604.69
2023-12-08T07:04:45.433Z,98605.53
2023-12-08T07:07:13.391Z,98606.41
2023-12-08T07:09:40.291Z,98602.94
2023-12-08T07:12:07.275Z,98608.09
2023-12-08T07:14:34.394Z,98622.72
2023-12-08T07:17:01.405Z,98620.13
2023-12-08T07:19:28.241Z,98625.25
2023-12-08T07:21:55.027Z,98620.94
2023-12-08T07:24:21.835Z,98623.53
2023-12-08T07:26:48.512Z,98628.72
2023-12-08T07:29:15.184Z,98626.97
2023-12-08T07:31:41.859Z,98638.13
2023-12-08T07:34:08.648Z,98633.81
2023-12-08T07:36:35.356Z,98640.72
2023-12-08T07:39:02.133Z,98633.88
2023-12-08T07:41:28.956Z,98623.53
2023-12-08T07:43:56.604Z,98621.81
2023-12-08T07:46:25.064Z,98627.00
2023-12-08T07:48:52.020Z,98629.59
2023-12-08T07:51:19.769Z,98631.34
2023-12-08T07:53:46.992Z,98627.06
2023-12-08T07:56:14.415Z,98635.66
2023-12-08T07:58:41.144Z,98653.72
2023-12-08T08:01:07.938Z,98636.53
2023-12-08T08:03:34.741Z,98648.53
2023-12-08T08:06:01.720Z,98649.41
2023-12-08T08:08:28.591Z,98645.06
2023-12-08T08:10:55.329Z,98650.19
2023-12-08T08:13:22.032Z,98650.19
2023-12-08T08:15:48.770Z,98648.44
2023-12-08T08:18:15.544Z,98658.75
2023-12-08T08:20:42.454Z,98660.47
2023-12-08T08:23:09.169Z,98661.34
2023-12-08T08:25:35.847Z,98659.56
2023-12-08T08:28:02.784Z,98669.91
2023-12-08T08:30:29.768Z,98665.63
2023-12-08T08:32:56.516Z,98663.09
2023-12-08T08:35:24.302Z,98662.22
2023-12-08T08:37:51.251Z,98664.78
2023-12-08T08:40:17.970Z,98666.47
2023-12-08T08:42:44.888Z,98660.47
2023-12-08T08:45:11.772Z,98663.03
2023-12-08T08:47:39.071Z,98664.72
2023-12-08T08:50:06.445Z,98667.25
2023-12-08T08:52:36.741Z,98665.50
2023-12-08T08:55:05.394Z,98666.31
2023-12-08T08:57:32.187Z,98667.16
2023-12-08T08:59:59.881Z,98653.31
2023-12-08T09:02:28.041Z,98658.44
2023-12-08T09:04:55.116Z,98656.66
2023-12-08T09:07:22.133Z,98665.19
2023-12-08T09:09:49.351Z,98665.97
2023-12-08T09:12:16.125Z,98655.59
2023-12-08T09:14:42.883Z,98662.41
2023-12-08T09:17:09.644Z,98664.91
2023-12-08T09:19:36.834Z,98665.72
2023-12-08T09:22:04.577Z,98664.75
2023-12-08T09:24:31.255Z,98671.56
2023-12-08T09:26:58.031Z,98675.75
2023-12-08T09:29:24.757Z,98661.06
2023-12-08T09:31:52.102Z,98667.03
2023-12-08T09:34:19.081Z,98666.06
2023-12-08T09:37:24.523Z,98658.22
2023-12-08T09:39:34.141Z,98658.19
2023-12-08T09:42:07.688Z,98665.84
2023-12-08T09:44:35.950Z,98658.03
2023-12-08T09:47:09.262Z,98670.91
2023-12-08T09:49:45.697Z,98676.03
2023-12-08T09:52:16.373Z,98669.94
2023-12-08T09:54:45.165Z,98672.44
2023-12-08T09:57:12.190Z,98681.00
2023-12-08T09:59:40.208Z,98675.78
2023-12-08T10:02:10.083Z,98678.28
2023-12-08T10:04:37.412Z,98676.47
2023-12-08T10:07:07.670Z,98687.63
2023-12-08T10:09:36.956Z,98681.59
2023-12-08T10:12:03.946Z,98685.81
2023-12-08T10:14:32.883Z,98688.31
2023-12-08T10:16:59.974Z,98687.38
2023-12-08T10:19:26.886Z,98684.72
2023-12-08T10:22:01.700Z,98696.69
2023-12-08T10:24:32.366Z,98694.88
2023-12-08T10:27:00.511Z,98696.47
2023-12-08T10:29:32.001Z,98689.47
2023-12-08T10:31:59.317Z,98684.16
2023-12-08T10:34:27.133Z,98681.41
2023-12-08T10:36:54.927Z,98687.31
2023-12-08T10:39:21.887Z,98687.19
2023-12-08T10:41:50.021Z,98687.09
2023-12-08T10:44:21.742Z,98692.16
2023-12-08T10:46:52.064Z,98680.88
2023-12-08T10:49:23.426Z,98682.59
2023-12-08T10:51:51.026Z,98676.56
2023-12-08T10:54:19.289Z,98675.72
2023-12-08T10:56:47.817Z,98678.28
2023-12-08T10:59:19.658Z,98672.25
2023-12-08T11:01:48.361Z,98671.38
2023-12-08T11:04:23.400Z,98682.59
2023-12-08T11:07:08.697Z,98680.00
2023-12-08T11:09:38.341Z,98685.13
2023-12-08T11:12:06.971Z,98687.69
2023-12-08T11:14:42.988Z,98685.06
2023-12-08T11:17:20.658Z,98686.75
2023-12-08T11:19:47.889Z,98688.44
2023-12-08T11:22:14.973Z,98686.63
2023-12-08T11:24:42.705Z,98682.31
2023-12-08T11:27:17.424Z,98682.25
2023-12-08T11:29:50.402Z,98695.13
2023-12-08T11:32:38.549Z,98689.97
2023-12-08T11:35:12.248Z,98695.13
2023-12-08T11:37:40.611Z,98689.09
2023-12-08T11:40:11.902Z,98682.19
2023-12-08T11:42:39.762Z,98676.97
2023-12-08T11:45:09.115Z,98679.56
2023-12-08T11:47:36.935Z,98681.31
2023-12-08T11:50:05.040Z,98688.25
2023-12-08T11:52:33.786Z,98692.63
2023-12-08T11:55:14.438Z,98673.66
2023-12-08T11:57:59.989Z,98683.94
2023-12-08T12:00:28.693Z,98663.22
2023-12-08T12:02:57.070Z,98670.94
2023-12-08T12:05:25.723Z,98664.91
2023-12-08T12:07:54.549Z,98654.47
2023-12-08T12:10:25.948Z,98670.06
2023-12-08T12:13:05.369Z,98674.41
2023-12-08T12:15:35.110Z,98676.13
2023-12-08T12:18:04.524Z,98682.22
2023-12-08T12:20:41.266Z,98681.34
2023-12-08T12:23:08.351Z,98664.06
2023-12-08T12:25:35.281Z,98677.91
2023-12-08T12:28:02.074Z,98675.34
2023-12-08T12:30:29.024Z,98674.50
2023-12-08T12:32:58.338Z,98675.38
2023-12-08T12:35:26.091Z,98674.50
2023-12-08T12:37:54.358Z,98684.00
2023-12-08T12:40:21.243Z,98682.31
2023-12-08T12:42:49.765Z,98701.28
2023-12-08T12:45:29.034Z,98687.47
2023-12-08T12:48:10.437Z,98696.94
2023-12-08T12:50:51.472Z,98705.56
2023-12-08T12:53:18.695Z,98693.47
2023-12-08T12:55:47.474Z,98709.84
2023-12-08T12:58:21.934Z,98702.97
2023-12-08T13:00:50.053Z,98703.03
2023-12-08T13:03:19.073Z,98703.91
2023-12-08T13:05:48.737Z,98710.81
2023-12-08T13:08:18.205Z,98709.13
2023-12-08T13:10:46.032Z,98703.94
2023-12-08T13:13:16.387Z,98704.78
2023-12-08T13:15:45.708Z,98708.28
2023-12-08T13:18:12.954Z,98707.41
2023-12-08T13:20:40.669Z,98717.78
2023-12-08T13:23:08.033Z,98723.81
2023-12-08T13:25:34.820Z,98726.38
2023-12-08T13:28:01.500Z,98726.38
2023-12-08T13:30:28.366Z,98725.50
2023-12-08T13:32:56.770Z,98731.56
2023-12-08T13:35:23.919Z,98739.34
2023-12-08T13:37:51.373Z,98729.88
2023-12-08T13:40:18.437Z,98739.41
2023-12-08T13:42:45.224Z,98736.03
2023-12-08T13:45:12.196Z,98723.94
2023-12-08T13:47:40.061Z,98736.94
2023-12-08T13:50:06.928Z,98737.78
2023-12-08T13:52:33.821Z,98736.97
2023-12-08T13:55:00.716Z,98737.00
2023-12-08T13:57:27.721Z,98731.84
2023-12-08T13:59:55.113Z,98733.59
2023-12-08T14:02:22.843Z,98737.00
2023-12-08T14:04:49.813Z,98737.00
2023-12-08T14:07:17.268Z,98735.25
2023-12-08T14:09:44.125Z,98742.19
2023-12-08T14:12:11.176Z,98740.50
2023-12-08T14:14:38.479Z,98744.84
2023-12-08T14:17:05.625Z,98733.66
2023-12-08T14:19:32.907Z,98731.06
2023-12-08T14:22:00.108Z,98734.50
2023-12-08T14:24:27.519Z,98731.06
2023-12-08T14:26:55.188Z,98713.84
2023-12-08T14:29:23.379Z,98722.44
2023-12-08T14:31:50.715Z,98731.94
2023-12-08T14:34:18.436Z,98726.75
2023-12-08T14:36:47.542Z,98731.91
2023-12-08T14:39:14.865Z,98731.03
2023-12-08T14:41:46.090Z,98734.47
2023-12-08T14:44:12.958Z,98726.69
2023-12-08T14:46:43.766Z,98727.53
2023-12-08T14:49:12.695Z,98728.41
2023-12-08T14:51:39.578Z,98731.88
2023-12-08T14:54:06.355Z,98732.84
2023-12-08T14:56:33.043Z,98733.75
2023-12-08T14:58:59.796Z,98732.13
2023-12-08T15:01:29.188Z,98728.72
2023-12-08T15:03:56.018Z,98729.63
2023-12-08T15:06:23.548Z,98732.28
2023-12-08T15:08:50.389Z,98738.34
2023-12-08T15:11:17.342Z,98731.50
2023-12-08T15:13:44.207Z,98736.69
2023-12-08T15:16:11.133Z,98734.16
2023-12-08T15:18:38.052Z,98741.91
2023-12-08T15:21:08.516Z,98737.59
2023-12-08T15:23:38.317Z,98730.69
2023-12-08T15:26:05.097Z,98737.66
2023-12-08T15:28:31.834Z,98738.53
2023-12-08T15:30:58.507Z,98736.00
2023-12-08T15:33:25.374Z,98742.06
2023-12-08T15:35:52.492Z,98730.94
2023-12-08T15:38:20.029Z,98735.25
2023-12-08T15:40:47.056Z,98732.75
2023-12-08T15:43:13.857Z,98739.69
2023-12-08T15:45:40.837Z,98735.44
2023-12-08T15:48:07.805Z,98753.59
2023-12-08T15:50:34.907Z,98752.78
2023-12-08T15:53:01.675Z,98757.19
2023-12-08T15:55:28.668Z,98753.78
2023-12-08T15:57:56.605Z,98750.34
2023-12-08T16:00:23.465Z,98753.00
2023-12-08T16:02:50.278Z,98756.50
2023-12-08T16:05:17.230Z,98767.66
2023-12-08T16:07:44.851Z,98765.09
2023-12-08T16:10:11.695Z,98765.13
2023-12-08T16:12:38.918Z,98757.38
2023-12-08T16:15:10.943Z,98767.72
2023-12-08T16:17:37.872Z,98760.81
2023-12-08T16:20:06.157Z,98759.09
2023-12-08T16:22:33.207Z,98762.53
2023-12-08T16:24:59.916Z,98760.78
2023-12-08T16:27:26.937Z,98756.47
2023-12-08T16:29:53.817Z,98766.81
2023-12-08T16:32:20.532Z,98750.44
2023-12-08T16:34:47.406Z,98753.91
2023-12-08T16:37:14.877Z,98759.13
2023-12-08T16:39:41.772Z,98760.00
2023-12-08T16:42:08.505Z,98752.25
2023-12-08T16:44:35.201Z,98752.28
2023-12-08T16:47:02.352Z,98757.47
2023-12-08T16:49:29.218Z,98754.88
2023-12-08T16:51:55.992Z,98755.72
2023-12-08T16:54:22.777Z,98760.06
2023-12-08T16:56:51.320Z,98762.66
2023-12-08T16:59:18.125Z,98767.00
2023-12-08T17:01:44.889Z,98761.00
2023-12-08T17:04:11.655Z,98761.88
2023-12-08T17:06:38.404Z,98767.94
2023-12-08T17:09:06.285Z,98765.38
2023-12-08T17:11:33.130Z,98761.91
2023-12-08T17:13:59.903Z,98768.84
2023-12-08T17:16:26.859Z,98764.50
2023-12-08T17:18:53.574Z,98755.88
2023-12-08T17:21:20.480Z,98761.09
2023-12-08T17:23:48.142Z,98755.09
2023-12-08T17:26:16.805Z,98762.91
2023-12-08T17:28:46.440Z,98764.66
2023-12-08T17:31:13.355Z,98766.44
2023-12-08T17:33:40.575Z,98761.28
2023-12-08T17:36:07.734Z,98766.44
2023-12-08T17:38:34.610Z,98765.66
2023-12-08T17:41:01.317Z,98768.28
2023-12-08T17:43:31.494Z,98766.56
2023-12-08T17:45:58.857Z,98774.31
2023-12-08T17:48:25.920Z,98768.34
2023-12-08T17:50:52.970Z,98769.22
2023-12-08T17:53:19.890Z,98777.00
2023-12-08T17:55:46.663Z,98775.28
2023-12-08T17:58:13.603Z,98773.59
2023-12-08T18:00:40.470Z,98777.91
2023-12-08T18:03:07.341Z,98770.16
2023-12-08T18:05:34.180Z,98777.06
2023-12-08T18:08:00.912Z,98782.22
2023-12-08T18:10:28.083Z,98770.19
2023-12-08T18:12:54.892Z,98771.94
2023-12-08T18:15:22.038Z,98765.94
2023-12-08T18:17:50.134Z,98764.22
2023-12-08T18:20:17.589Z,98760.81
2023-12-08T18:22:47.305Z,98772.06
2023-12-08T18:25:14.082Z,98771.25
2023-12-08T18:27:53.549Z,98773.03
2023-12-08T18:30:30.098Z,98778.22
2023-12-08T18:32:57.195Z,98784.28
2023-12-08T18:35:23.943Z,98780.84
2023-12-08T18:37:51.361Z,98787.78
2023-12-08T18:40:18.201Z,98795.50
2023-12-08T18:42:47.617Z,98796.38
2023-12-08T18:45:15.310Z,98798.06
2023-12-08T18:47:42.099Z,98807.53
2023-12-08T18:50:09.331Z,98807.50
2023-12-08T18:52:36.377Z,98811.81
2023-12-08T18:55:04.913Z,98810.09
2023-12-08T18:57:32.330Z,98791.16
2023-12-08T19:00:00.923Z,98797.19
2023-12-08T19:02:28.008Z,98796.34
2023-12-08T19:04:55.667Z,98798.94
2023-12-08T19:07:23.196Z,98799.00
2023-12-08T19:09:50.129Z,98809.38
2023-12-08T19:12:17.446Z,98802.56
2023-12-08T19:14:44.429Z,98793.13
2023-12-08T19:17:11.226Z,98787.09
2023-12-08T19:19:38.036Z,98792.25
2023-12-08T19:22:04.932Z,98794.81
2023-12-08T19:24:32.519Z,98796.53
2023-12-08T19:26:59.600Z,98795.72
2023-12-08T19:29:29.043Z,98798.34
2023-12-08T19:31:57.058Z,98788.09
2023-12-08T19:34:24.444Z,98796.75
2023-12-08T19:36:51.166Z,98798.50
2023-12-08T19:39:18.109Z,98797.69
2023-12-08T19:41:44.932Z,98792.56
2023-12-08T19:44:11.723Z,98790.03
2023-12-08T19:46:39.754Z,98796.97
2023-12-08T19:49:07.400Z,98794.41
2023-12-08T19:51:34.541Z,98797.88
2023-12-08T19:54:01.301Z,98794.50
2023-12-08T19:56:28.035Z,98794.53
2023-12-08T19:58:55.014Z,98803.13
2023-12-08T20:01:21.794Z,98805.75
2023-12-08T20:03:48.719Z,98797.19
2023-12-08T20:06:15.667Z,98798.97
2023-12-08T20:08:43.025Z,98802.47
2023-12-08T20:11:11.709Z,98794.75
2023-12-08T20:13:38.544Z,98795.63
2023-12-08T20:16:08.199Z,98792.22
2023-12-08T20:18:35.555Z,98804.28
2023-12-08T20:21:07.335Z,98793.13
2023-12-08T20:23:37.511Z,98797.44
2023-12-08T20:26:05.135Z,98792.28
2023-12-08T20:28:40.792Z,98791.41
2023-12-08T20:31:08.345Z,98803.41
2023-12-08T20:33:35.768Z,98793.91
2023-12-08T20:36:08.053Z,98797.28
2023-12-08T20:38:34.919Z,98795.53
2023-12-08T20:41:01.960Z,98791.22
2023-12-08T20:43:28.643Z,98793.81
2023-12-08T20:45:58.968Z,98776.56
2023-12-08T20:48:25.971Z,98791.22
2023-12-08T20:50:52.829Z,98798.13
2023-12-08T20:53:19.584Z,98803.28
2023-12-08T20:55:46.600Z,98792.97
2023-12-08T20:58:13.388Z,98795.56
2023-12-08T21:00:40.924Z,98798.13
2023-12-08T21:03:08.628Z,98798.13
2023-12-08T21:05:35.845Z,98800.69
2023-12-08T21:08:03.199Z,98786.91
2023-12-08T21:10:30.065Z,98791.22
2023-12-08T21:12:57.689Z,98787.75
2023-12-08T21:15:24.727Z,98784.28
2023-12-08T21:17:53.442Z,98778.22
2023-12-08T21:20:20.240Z,98783.38
2023-12-08T21:22:46.920Z,98773.03
2023-12-08T21:25:13.715Z,98766.16
2023-12-08T21:27:41.767Z,98767.88
2023-12-08T21:30:09.553Z,98772.19
2023-12-08T21:32:37.833Z,98774.81
2023-12-08T21:35:05.693Z,98787.72
2023-12-08T21:37:32.540Z,98792.97
2023-12-08T21:39:59.456Z,98804.19
2023-12-08T21:42:26.324Z,98805.06
2023-12-08T21:44:53.094Z,98805.91
2023-12-08T21:47:19.910Z,98817.13
2023-12-08T21:49:46.950Z,98822.28
2023-12-08T21:52:14.152Z,98818.84
2023-12-08T21:54:40.977Z,98818.88
2023-12-08T21:57:07.754Z,98812.84
2023-12-08T21:59:34.513Z,98797.38
2023-12-08T22:02:01.377Z,98782.75
2023-12-08T22:04:28.160Z,98784.47
2023-12-08T22:06:54.878Z,98809.47
2023-12-08T22:09:21.638Z,98807.75
2023-12-08T22:11:48.388Z,98801.78
2023-12-08T22:14:15.135Z,98802.66
2023-12-08T22:16:41.848Z,98801.78
2023-12-08T22:19:08.620Z,98788.06
2023-12-08T22:21:35.908Z,98786.34
2023-12-08T22:24:02.662Z,98777.75
2023-12-08T22:26:29.362Z,98764.00
2023-12-08T22:28:56.089Z,98776.91
2023-12-08T22:31:22.783Z,98764.91
2023-12-08T22:33:49.948Z,98774.38
2023-12-08T22:36:18.304Z,98770.13
2023-12-08T22:38:45.163Z,98766.69
2023-12-08T22:41:11.900Z,98769.31
2023-12-08T22:43:38.622Z,98754.75
2023-12-08T22:46:05.392Z,98750.47
2023-12-08T22:48:32.952Z,98751.34
2023-12-08T22:51:07.096Z,98757.38
2023-12-08T22:53:37.579Z,98757.41
2023-12-08T22:56:04.855Z,98763.41
2023-12-08T22:58:31.543Z,98753.09
2023-12-08T23:00:58.328Z,98754.81
2023-12-08T23:03:25.120Z,98753.94
2023-12-08T23:05:52.022Z,98746.25
2023-12-08T23:08:18.804Z,98753.97
2023-12-08T23:10:45.574Z,98747.13
2023-12-08T23:13:12.276Z,98752.28
2023-12-08T23:15:39.026Z,98760.91
2023-12-08T23:18:05.963Z,98750.63
2023-12-08T23:20:33.057Z,98754.91
2023-12-08T23:22:59.767Z,98761.81
2023-12-08T23:25:26.471Z,98760.94
2023-12-08T23:27:53.163Z,98760.06
2023-12-08T23:30:20.089Z,98759.19
2023-12-08T23:32:48.499Z,98755.69
2023-12-08T23:35:15.517Z,98753.13
2023-12-08T23:37:42.916Z,98746.22
2023-12-08T23:40:10.205Z,98743.59
2023-12-08T23:42:36.983Z,98737.53
2023-12-08T23:45:04.942Z,98736.63
2023-12-08T23:47:31.813Z,98736.66
2023-12-08T23:49:58.579Z,98737.50
2023-12-08T23:52:25.611Z,98730.69
2023-12-08T23:54:52.461Z,98719.53
2023-12-08T23:57:19.254Z,98711.78
2023-12-08T23:59:46.114Z,98714.38
